الصفحة الرئيسية
METAR-TAF:

METAR-TAF

مطار :

Iguaçu, الأرجنتين

دائرة عرض: 25-44S, خط طول: 054-28W, ارتفاع: 270 متر

مراقبة الطقس الحالي

تاريخ ووقت الإصدار 38 دقيقة قبل الساعة 00:00UTC
ريح 6 عقدة من الشرق/الشمال الشرقي, الاتجاه يتراوح بين الشمال الشرقي و الشرق/الجنوب الشرقي
درجة الحرارة 19°درجة مئوية
الرطوبة 88%
ضغط 1009 hPa
الرؤية 10 كم أو أكثر
الغيوم لا تقل 1500 م ولا وجود لمزنة ركامية السحاب الأسود

METAR: SARI 180000Z 07006KT 040V110 CAVOK 19/17 Q1009

زمن: 21:38 (00:38 UTC)

توقعات

تاريخ ووقت الإصدار 1ساعة و 38 دقيقة قبل الساعة 23:00UTC
التوقعات صالحة من18 الساعة 00 UTC إلى 18 الساعة 24 UTC
ريح 5 عقدة من الشرق
الرؤية 10 كم أو أكثر
الغيوم لا تقل 1500 م ولا وجود لمزنة ركامية السحاب الأسود
أصبح
من 18 الساعة 01 UTC إلى 18 الساعة 03 UTC
الرؤية: 5000 متر
غيوم مفككة على ارتفاع 1000 قدم
غيوم قليلة على ارتفاع 5000 قدم, مزنة ركامية.
عاصفة رعدية, مطر,

TAF: SARI 172300Z 1800/1824 09005KT CAVOK TX25/1818Z TN17/1810Z BECMG 1801/1803 5000 TSRA BKN010 FEW050CB

أرصاد الطقس والتوقعات من أكثر من 4000 مطار (تقارير الطقس للمطار METAR والتنبؤ بالطقس بالمطارTAF).

المحطات المتاحة هي النقط الصفراء والحمراء على الخريطة.

حرك المؤشر فوق النقطة لمعرفة اسم المحطة.

ثم انقر لمعرفة أرصاد وتوقعات الطقس.

لتغيير الخارطة: اضغط على الأزرار الخضراء مع رمز الصليب الأسود للتكبير. على الزر الأخضر مع شرطة للتصغير، أو على الأسهم الخضراء للخرائط المجاورة.


METAR-TAF: